Time;durP1;ratioP1;P1;durP2;ratioP2;P2;SDS_P1;SDS_P2;PMS_P1;PMS_P2;Temp;Humidity;BMP_temperature;BMP_pressure;BME280_temperature;BME280_humidity;BME280_pressure;Samples;Min_cycle;Max_cycle;Signal;HPM_P1;HPM_P2
2023/04/24 00:00:56;;;;;;;3.63;3.33;;;11.20;91.30;;;;;;5050408;28;20025;-69
2023/04/24 00:03:24;;;;;;;4.65;4.10;;;11.30;91.30;;;;;;5050682;28;20028;-68
2023/04/24 00:05:50;;;;;;;4.80;4.35;;;11.30;91.20;;;;;;5050459;28;20107;-68
2023/04/24 00:08:16;;;;;;;4.60;4.05;;;11.20;91.30;;;;;;5050516;28;20024;-67
2023/04/24 00:10:42;;;;;;;5.05;4.43;;;11.20;91.30;;;;;;5049249;28;20028;-69
2023/04/24 00:13:08;;;;;;;5.68;4.22;;;11.20;91.30;;;;;;5050222;28;20029;-69
2023/04/24 00:15:34;;;;;;;5.40;4.90;;;11.20;91.40;;;;;;5050348;28;20057;-68
2023/04/24 00:18:01;;;;;;;5.18;4.45;;;11.20;91.50;;;;;;5049063;28;20122;-68
2023/04/24 00:20:28;;;;;;;6.15;4.90;;;11.20;91.50;;;;;;5050463;28;20017;-68
2023/04/24 00:22:53;;;;;;;5.95;4.78;;;11.20;91.50;;;;;;5050264;28;20212;-69
2023/04/24 00:25:19;;;;;;;4.70;4.25;;;11.20;91.50;;;;;;5050382;28;20036;-68
2023/04/24 00:27:44;;;;;;;5.38;4.40;;;11.20;91.50;;;;;;5049971;28;20115;-68
2023/04/24 00:30:10;;;;;;;4.25;3.85;;;11.30;91.50;;;;;;5050157;28;20099;-68
2023/04/24 00:32:36;;;;;;;4.30;3.90;;;11.20;91.50;;;;;;5050146;28;20017;-68
2023/04/24 00:35:01;;;;;;;4.40;3.70;;;11.20;91.50;;;;;;5048746;28;20036;-68
2023/04/24 00:37:27;;;;;;;3.25;2.88;;;11.20;91.60;;;;;;5049990;28;20033;-68
2023/04/24 00:39:52;;;;;;;2.45;2.25;;;11.20;91.60;;;;;;5049938;28;20360;-69
2023/04/24 00:42:18;;;;;;;2.28;2.08;;;11.20;91.60;;;;;;5050159;28;20029;-70
2023/04/24 00:44:43;;;;;;;2.60;2.40;;;11.20;91.50;;;;;;5049987;28;20025;-69
2023/04/24 00:47:11;;;;;;;4.30;2.80;;;11.20;91.50;;;;;;5050281;28;20021;-69
2023/04/24 00:49:36;;;;;;;2.28;2.08;;;11.20;91.50;;;;;;5049968;28;20028;-67
2023/04/24 00:52:02;;;;;;;2.30;2.10;;;11.20;91.50;;;;;;5050152;28;20120;-70
2023/04/24 00:54:27;;;;;;;2.08;1.90;;;11.20;91.50;;;;;;5050003;28;20029;-69
2023/04/24 00:56:53;;;;;;;2.60;2.10;;;11.20;91.50;;;;;;5049773;28;20120;-69
2023/04/24 00:59:19;;;;;;;3.65;2.50;;;11.20;91.50;;;;;;5049782;28;20032;-68
2023/04/24 01:01:45;;;;;;;2.60;2.40;;;11.10;91.50;;;;;;5050826;28;20017;-70
2023/04/24 01:04:12;;;;;;;2.90;2.28;;;11.20;91.60;;;;;;5053889;28;20162;-70
2023/04/24 01:06:39;;;;;;;3.22;2.63;;;11.20;91.60;;;;;;5054282;28;20017;-69
2023/04/24 01:09:05;;;;;;;4.00;3.60;;;11.20;91.70;;;;;;5052570;28;20036;-70
2023/04/24 01:11:31;;;;;;;3.47;3.17;;;11.10;91.70;;;;;;5054583;28;20208;-70
2023/04/24 01:13:57;;;;;;;4.25;3.40;;;11.20;91.80;;;;;;5054295;28;20132;-70
2023/04/24 01:16:23;;;;;;;3.42;3.10;;;11.20;91.80;;;;;;5054049;28;20074;-70
2023/04/24 01:18:49;;;;;;;5.30;4.80;;;11.20;91.80;;;;;;5054034;28;20025;-70
2023/04/24 01:21:16;;;;;;;5.78;5.18;;;11.20;91.80;;;;;;5054084;28;20028;-70
2023/04/24 01:23:46;;;;;;;8.68;7.53;;;11.10;91.80;;;;;;5053830;28;20021;-68
2023/04/24 01:26:16;;;;;;;9.30;6.93;;;11.20;91.90;;;;;;5053514;28;20082;-70
2023/04/24 01:28:42;;;;;;;11.43;8.98;;;11.10;91.90;;;;;;5053642;28;20017;-70
2023/04/24 01:31:07;;;;;;;10.30;8.68;;;11.10;92.00;;;;;;5053571;28;20033;-69
2023/04/24 01:33:33;;;;;;;12.00;9.88;;;11.10;92.00;;;;;;5053580;28;20095;-69
2023/04/24 01:35:59;;;;;;;9.30;8.07;;;11.10;92.00;;;;;;5053491;28;20024;-70
2023/04/24 01:38:25;;;;;;;9.90;7.93;;;11.10;92.00;;;;;;5053184;28;20028;-70
2023/04/24 01:40:52;;;;;;;8.82;7.30;;;11.10;92.10;;;;;;5053053;28;20017;-70
2023/04/24 01:43:18;;;;;;;8.85;6.82;;;11.10;92.10;;;;;;5053277;28;20072;-69
2023/04/24 01:45:43;;;;;;;7.47;5.78;;;11.10;92.10;;;;;;5053154;28;20028;-69
2023/04/24 01:48:09;;;;;;;6.80;5.68;;;11.10;92.10;;;;;;5051789;28;20395;-70
2023/04/24 01:50:35;;;;;;;6.15;4.97;;;11.10;92.10;;;;;;5053411;28;20154;-68
2023/04/24 01:53:00;;;;;;;4.70;4.05;;;11.10;92.10;;;;;;5052971;28;20396;-69
2023/04/24 01:55:26;;;;;;;4.68;3.80;;;11.00;92.10;;;;;;5051652;28;20227;-70
2023/04/24 01:57:55;;;;;;;5.22;4.18;;;11.00;92.10;;;;;;5052553;28;20027;-69
2023/04/24 02:00:21;;;;;;;5.72;4.20;;;11.00;92.20;;;;;;5053051;28;20017;-70
2023/04/24 02:02:47;;;;;;;4.35;3.65;;;11.00;92.20;;;;;;5052767;28;20028;-69
2023/04/24 02:05:12;;;;;;;4.28;3.67;;;11.00;92.20;;;;;;5052900;28;20399;-69
2023/04/24 02:07:38;;;;;;;5.45;4.57;;;11.00;92.20;;;;;;5052654;28;20096;-70
2023/04/24 02:10:04;;;;;;;5.25;4.53;;;11.00;92.20;;;;;;5053216;28;20082;-70
2023/04/24 02:12:30;;;;;;;4.75;4.20;;;11.10;92.30;;;;;;5052920;28;20027;-68
2023/04/24 02:14:55;;;;;;;4.00;3.58;;;11.10;92.30;;;;;;5051441;28;20025;-69
2023/04/24 02:17:21;;;;;;;5.95;4.97;;;11.10;92.30;;;;;;5052009;28;20021;-68
2023/04/24 02:19:47;;;;;;;6.15;5.30;;;11.10;92.40;;;;;;5052586;28;20021;-70
2023/04/24 02:22:12;;;;;;;6.70;5.82;;;11.10;92.40;;;;;;5052672;28;20559;-68
2023/04/24 02:24:38;;;;;;;6.10;5.28;;;11.10;92.40;;;;;;5052084;28;20380;-69
2023/04/24 02:27:04;;;;;;;7.15;5.47;;;11.20;92.40;;;;;;5052644;28;20067;-69
2023/04/24 02:29:30;;;;;;;6.60;5.15;;;11.20;92.30;;;;;;5052310;28;20049;-69
2023/04/24 02:31:55;;;;;;;6.20;5.60;;;11.30;92.60;;;;;;5051174;28;20079;-69
2023/04/24 02:34:21;;;;;;;6.00;5.13;;;11.30;92.20;;;;;;5052344;28;20029;-70
2023/04/24 02:36:47;;;;;;;8.05;6.97;;;11.30;92.10;;;;;;5052080;28;20013;-69
2023/04/24 02:39:13;;;;;;;8.80;7.13;;;11.30;92.10;;;;;;5051935;28;20484;-69
2023/04/24 02:41:38;;;;;;;12.63;9.77;;;11.30;92.10;;;;;;5050817;28;20039;-69
2023/04/24 02:44:04;;;;;;;12.20;10.90;;;11.30;92.00;;;;;;5052217;28;20492;-68
2023/04/24 02:46:29;;;;;;;16.55;13.68;;;11.30;92.10;;;;;;5052047;28;20017;-68
2023/04/24 02:48:55;;;;;;;15.48;12.90;;;11.20;92.20;;;;;;5052303;28;20029;-69
2023/04/24 02:51:21;;;;;;;19.42;14.35;;;11.20;92.20;;;;;;5052026;28;20025;-69
2023/04/24 02:53:46;;;;;;;19.65;16.45;;;11.10;92.20;;;;;;5051842;28;20033;-69
2023/04/24 02:56:12;;;;;;;16.98;13.82;;;11.10;92.40;;;;;;5051914;28;20057;-68
2023/04/24 02:58:38;;;;;;;16.98;14.20;;;11.00;92.40;;;;;;5051709;28;20119;-68
2023/04/24 03:01:04;;;;;;;16.77;14.25;;;11.10;92.50;;;;;;5052003;28;20466;-68
2023/04/24 03:03:30;;;;;;;16.17;13.20;;;11.10;92.50;;;;;;5051833;28;20372;-69
2023/04/24 03:05:56;;;;;;;14.85;12.70;;;11.10;92.50;;;;;;5052138;28;20056;-69
2023/04/24 03:08:22;;;;;;;16.95;13.75;;;11.10;92.50;;;;;;5051473;28;20398;-69
2023/04/24 03:10:48;;;;;;;14.88;12.30;;;11.00;92.50;;;;;;5051530;28;20103;-69
2023/04/24 03:13:13;;;;;;;13.27;11.52;;;11.00;92.60;;;;;;5051230;28;20032;-68
2023/04/24 03:15:39;;;;;;;15.13;11.20;;;11.00;92.70;;;;;;5049592;28;20033;-68
2023/04/24 03:18:04;;;;;;;12.02;10.15;;;10.90;92.70;;;;;;5051335;28;20099;-69
2023/04/24 03:20:30;;;;;;;12.63;10.57;;;10.90;92.80;;;;;;5051121;28;20021;-69
2023/04/24 03:22:56;;;;;;;12.80;10.30;;;10.90;92.80;;;;;;5051357;28;20024;-69
2023/04/24 03:25:22;;;;;;;12.25;9.27;;;10.90;92.80;;;;;;5051331;28;20040;-68
2023/04/24 03:27:48;;;;;;;12.57;10.40;;;10.90;92.80;;;;;;5051307;28;20022;-68
2023/04/24 03:30:13;;;;;;;14.95;12.35;;;11.00;92.80;;;;;;5051487;28;20021;-67
2023/04/24 03:32:39;;;;;;;13.10;11.48;;;11.00;92.70;;;;;;5051736;28;20470;-69
2023/04/24 03:35:07;;;;;;;16.27;13.18;;;11.00;92.70;;;;;;5051918;28;20502;-69
2023/04/24 03:37:32;;;;;;;20.48;17.60;;;11.00;92.70;;;;;;5051253;28;20024;-69
2023/04/24 03:39:58;;;;;;;20.42;17.20;;;11.00;92.80;;;;;;5051140;28;20361;-69
2023/04/24 03:42:24;;;;;;;20.20;16.90;;;10.90;92.90;;;;;;5050927;28;20482;-69
2023/04/24 03:44:49;;;;;;;18.75;15.68;;;10.90;93.00;;;;;;5051058;28;20029;-70
2023/04/24 03:47:15;;;;;;;16.33;13.88;;;10.90;93.10;;;;;;5050837;28;20032;-70
2023/04/24 03:49:40;;;;;;;15.18;13.20;;;10.90;93.10;;;;;;5050964;28;20039;-69
2023/04/24 03:52:06;;;;;;;19.88;15.30;;;10.90;93.00;;;;;;5050605;28;20033;-69
2023/04/24 03:54:31;;;;;;;21.90;17.65;;;10.90;93.00;;;;;;5050892;28;20300;-69
2023/04/24 03:56:57;;;;;;;19.25;15.60;;;10.90;93.00;;;;;;5050753;28;20025;-69
2023/04/24 03:59:22;;;;;;;19.40;15.90;;;10.90;93.00;;;;;;5050720;28;20017;-68
2023/04/24 04:01:48;;;;;;;21.58;16.10;;;10.90;93.00;;;;;;5050776;28;20514;-68
2023/04/24 04:04:14;;;;;;;20.13;16.45;;;10.90;93.00;;;;;;5050880;28;20016;-68
2023/04/24 04:06:39;;;;;;;28.20;23.25;;;11.00;92.90;;;;;;5050262;28;20025;-69
2023/04/24 04:09:05;;;;;;;24.58;21.17;;;10.90;92.80;;;;;;5050477;28;20065;-68
2023/04/24 04:11:31;;;;;;;28.20;23.45;;;10.90;92.80;;;;;;5050492;28;20029;-68
2023/04/24 04:13:56;;;;;;;30.10;24.45;;;10.90;92.80;;;;;;5050475;28;20021;-68
2023/04/24 04:16:22;;;;;;;31.73;25.83;;;10.80;92.80;;;;;;5050577;28;20033;-68
2023/04/24 04:18:48;;;;;;;25.27;21.15;;;10.80;92.90;;;;;;5050203;28;20029;-68
2023/04/24 04:21:14;;;;;;;26.65;22.77;;;10.80;92.90;;;;;;5050269;28;20024;-68
2023/04/24 04:23:39;;;;;;;31.58;24.55;;;10.70;92.80;;;;;;5050213;28;20025;-68
2023/04/24 04:26:06;;;;;;;28.20;21.77;;;10.70;92.90;;;;;;5050321;28;20029;-67
2023/04/24 04:28:32;;;;;;;28.52;23.92;;;10.70;92.90;;;;;;5050140;28;20021;-68
2023/04/24 04:30:57;;;;;;;27.13;22.67;;;10.60;92.90;;;;;;5048896;28;20513;-69
2023/04/24 04:33:24;;;;;;;28.70;24.05;;;10.60;92.90;;;;;;5050251;28;20036;-68
2023/04/24 04:35:51;;;;;;;33.05;26.25;;;10.50;92.90;;;;;;5049908;28;20021;-68
2023/04/24 04:38:18;;;;;;;27.17;22.40;;;10.50;93.10;;;;;;5049554;28;20032;-67
2023/04/24 04:40:44;;;;;;;32.30;25.42;;;10.40;93.10;;;;;;5050445;28;20025;-69
2023/04/24 04:43:10;;;;;;;37.05;28.63;;;10.40;93.10;;;;;;5050093;28;20028;-68
2023/04/24 04:45:41;;;;;;;29.27;24.02;;;10.40;93.10;;;;;;5050267;28;20028;-69
2023/04/24 04:48:08;;;;;;;24.58;20.20;;;10.30;93.20;;;;;;5048852;28;20426;-68
2023/04/24 04:50:37;;;;;;;24.67;20.10;;;10.30;93.30;;;;;;5049716;28;20071;-68
2023/04/24 04:53:03;;;;;;;24.80;21.05;;;10.40;93.20;;;;;;5050104;28;20025;-69
2023/04/24 04:55:28;;;;;;;24.73;19.45;;;10.40;93.20;;;;;;5049906;28;20108;-69
2023/04/24 04:57:55;;;;;;;23.52;20.52;;;10.40;93.20;;;;;;5050333;28;20096;-68
2023/04/24 05:00:21;;;;;;;25.10;21.48;;;10.40;93.10;;;;;;5049910;28;20020;-68
2023/04/24 05:02:47;;;;;;;22.60;19.42;;;10.50;93.20;;;;;;5050024;28;20392;-68
2023/04/24 05:05:13;;;;;;;29.95;23.05;;;10.50;93.20;;;;;;5049819;28;20471;-69
2023/04/24 05:07:38;;;;;;;26.60;20.33;;;10.40;93.00;;;;;;5049809;28;20029;-69
2023/04/24 05:10:04;;;;;;;27.38;22.83;;;10.40;93.10;;;;;;5049930;28;20096;-68
2023/04/24 05:12:30;;;;;;;23.00;19.05;;;10.40;93.20;;;;;;5049668;28;20394;-68
2023/04/24 05:14:55;;;;;;;26.88;22.85;;;10.30;93.30;;;;;;5048513;28;20021;-69
2023/04/24 05:17:21;;;;;;;23.42;18.10;;;10.30;93.30;;;;;;5049640;28;20506;-69
2023/04/24 05:19:47;;;;;;;19.48;16.48;;;10.30;93.40;;;;;;5050090;28;20021;-68
2023/04/24 05:22:13;;;;;;;19.70;15.60;;;10.30;93.40;;;;;;5049621;28;20533;-69
2023/04/24 05:24:39;;;;;;;19.95;17.20;;;10.40;93.40;;;;;;5049766;28;20020;-68
2023/04/24 05:27:04;;;;;;;15.07;13.48;;;10.40;93.30;;;;;;5049465;28;20406;-69
2023/04/24 05:29:31;;;;;;;15.48;13.52;;;10.30;93.40;;;;;;5048402;28;20501;-66
2023/04/24 05:31:57;;;;;;;16.23;13.55;;;10.40;93.40;;;;;;5048222;28;20047;-67
2023/04/24 05:34:23;;;;;;;14.48;12.98;;;10.40;93.40;;;;;;5049623;28;20296;-67
2023/04/24 05:36:48;;;;;;;14.43;12.13;;;10.50;93.30;;;;;;5048308;28;20020;-67
2023/04/24 05:39:15;;;;;;;15.02;12.52;;;10.50;93.30;;;;;;5048391;28;20021;-68
2023/04/24 05:41:40;;;;;;;13.85;11.77;;;10.60;93.20;;;;;;5049733;28;20100;-67
2023/04/24 05:44:06;;;;;;;14.40;11.38;;;10.60;93.20;;;;;;5048204;28;20149;-67
2023/04/24 05:46:31;;;;;;;13.98;11.00;;;10.60;93.10;;;;;;5049651;28;20017;-66
2023/04/24 05:48:57;;;;;;;14.38;11.63;;;10.70;93.00;;;;;;5050477;28;20502;-68
2023/04/24 05:51:23;;;;;;;12.98;10.60;;;10.80;92.90;;;;;;5053692;28;20056;-68
2023/04/24 05:53:49;;;;;;;11.60;10.00;;;10.80;92.90;;;;;;5053369;28;20391;-67
2023/04/24 05:56:15;;;;;;;11.38;9.52;;;10.80;92.80;;;;;;5053217;28;20025;-67
2023/04/24 05:58:40;;;;;;;10.57;9.10;;;10.90;92.80;;;;;;5052752;28;20051;-68
2023/04/24 06:01:06;;;;;;;12.05;9.95;;;10.90;92.70;;;;;;5053064;28;20025;-66
2023/04/24 06:03:32;;;;;;;10.38;9.00;;;10.90;92.60;;;;;;5052759;28;20143;-69
2023/04/24 06:05:58;;;;;;;9.85;8.07;;;11.00;92.60;;;;;;5051606;28;20463;-67
2023/04/24 06:08:23;;;;;;;9.52;7.90;;;11.00;92.50;;;;;;5042995;28;20062;-68
2023/04/24 06:10:49;;;;;;;9.52;7.60;;;11.00;92.40;;;;;;5052401;28;20039;-66
2023/04/24 06:13:15;;;;;;;7.55;6.15;;;11.10;92.30;;;;;;5052714;28;20035;-67
2023/04/24 06:15:40;;;;;;;8.65;7.20;;;11.10;92.20;;;;;;5052533;28;20031;-68
2023/04/24 06:18:06;;;;;;;8.25;6.82;;;11.10;92.20;;;;;;5052372;28;20021;-68
2023/04/24 06:20:31;;;;;;;8.48;6.80;;;11.10;92.20;;;;;;5052602;28;20028;-68
2023/04/24 06:22:57;;;;;;;7.63;6.43;;;11.10;92.20;;;;;;5052550;28;20083;-68
2023/04/24 06:25:26;;;;;;;8.18;7.13;;;11.10;92.10;;;;;;5052468;28;20029;-68
2023/04/24 06:27:52;;;;;;;7.38;5.80;;;11.10;92.10;;;;;;5052479;28;20029;-67
2023/04/24 06:30:17;;;;;;;7.78;6.03;;;11.20;92.10;;;;;;5052343;28;20090;-67
2023/04/24 06:32:43;;;;;;;6.68;5.68;;;11.20;92.10;;;;;;5052306;28;20028;-66
2023/04/24 06:35:09;;;;;;;7.43;6.38;;;11.30;92.00;;;;;;5052149;28;20025;-67
2023/04/24 06:37:35;;;;;;;6.82;5.50;;;11.30;91.90;;;;;;5052162;28;20074;-68
2023/04/24 06:40:01;;;;;;;6.40;5.53;;;11.30;91.90;;;;;;5049155;28;20276;-68
2023/04/24 06:42:26;;;;;;;5.28;4.78;;;11.30;91.80;;;;;;5050316;28;20021;-67
2023/04/24 06:44:53;;;;;;;5.25;4.57;;;11.40;91.80;;;;;;5052020;28;20505;-67
2023/04/24 06:47:19;;;;;;;7.63;4.80;;;11.40;91.80;;;;;;5051391;28;20163;-68
2023/04/24 06:49:44;;;;;;;6.28;4.22;;;11.50;91.70;;;;;;5050780;28;20112;-67
2023/04/24 06:52:10;;;;;;;5.38;4.57;;;11.50;91.60;;;;;;5050327;28;20040;-67
2023/04/24 06:54:35;;;;;;;4.78;4.10;;;11.40;91.60;;;;;;5051867;28;20025;-68
2023/04/24 06:57:02;;;;;;;3.78;3.40;;;11.40;91.60;;;;;;5051454;28;20110;-68
2023/04/24 06:59:28;;;;;;;3.60;3.17;;;11.40;91.60;;;;;;5050090;28;20502;-68
2023/04/24 07:01:55;;;;;;;3.60;2.97;;;11.50;91.90;;;;;;5051454;28;20021;-68
2023/04/24 07:04:20;;;;;;;3.38;2.95;;;11.40;91.50;;;;;;5051831;28;20136;-67
2023/04/24 07:06:46;;;;;;;4.50;3.42;;;11.40;91.50;;;;;;5051611;28;20116;-67
2023/04/24 07:09:13;;;;;;;2.72;2.45;;;11.40;91.40;;;;;;5051709;28;20021;-67
2023/04/24 07:11:40;;;;;;;3.83;2.42;;;11.40;91.50;;;;;;5051733;28;20028;-68
2023/04/24 07:14:06;;;;;;;2.70;2.30;;;11.40;91.50;;;;;;5051525;28;20025;-68
2023/04/24 07:16:31;;;;;;;3.80;2.60;;;11.40;91.50;;;;;;5050290;28;20448;-68
2023/04/24 07:18:57;;;;;;;3.28;2.58;;;11.40;91.50;;;;;;5051613;28;20476;-69
2023/04/24 07:21:23;;;;;;;2.25;2.05;;;11.40;91.50;;;;;;5051799;28;20060;-67
2023/04/24 07:23:48;;;;;;;2.38;2.13;;;11.40;91.50;;;;;;5051284;28;20025;-67
2023/04/24 07:26:14;;;;;;;2.78;2.10;;;11.30;91.50;;;;;;5051262;28;20061;-68
2023/04/24 07:28:40;;;;;;;2.35;1.90;;;11.30;91.50;;;;;;5051071;28;20029;-67
2023/04/24 07:31:06;;;;;;;2.33;2.13;;;11.30;91.50;;;;;;5050110;28;20025;-67
2023/04/24 07:33:32;;;;;;;2.35;2.15;;;11.20;91.60;;;;;;5051049;28;20081;-68
2023/04/24 07:35:58;;;;;;;1.92;1.83;;;11.20;91.60;;;;;;5051148;28;20025;-68
2023/04/24 07:38:25;;;;;;;2.38;2.10;;;11.10;91.70;;;;;;5050899;28;20025;-68
2023/04/24 07:40:51;;;;;;;2.20;2.00;;;11.10;91.80;;;;;;5051020;28;20379;-67
2023/04/24 07:43:17;;;;;;;2.30;2.10;;;11.00;91.80;;;;;;5050901;28;20017;-67
2023/04/24 07:45:42;;;;;;;3.22;2.83;;;11.00;91.90;;;;;;5051397;28;20517;-68
2023/04/24 07:48:08;;;;;;;3.40;2.60;;;10.80;91.90;;;;;;5050698;28;20029;-67
2023/04/24 07:50:36;;;;;;;4.20;3.17;;;10.80;92.10;;;;;;5050779;28;20049;-66
2023/04/24 07:53:01;;;;;;;3.78;3.28;;;10.70;92.20;;;;;;5050937;28;20450;-67
2023/04/24 07:55:27;;;;;;;5.60;4.43;;;10.60;92.30;;;;;;5050758;28;20099;-66
2023/04/24 07:57:53;;;;;;;7.18;5.53;;;10.60;92.40;;;;;;5048990;28;20064;-67
2023/04/24 08:00:18;;;;;;;9.18;6.32;;;10.50;92.40;;;;;;5050740;28;20103;-68
2023/04/24 08:02:44;;;;;;;9.38;6.70;;;10.50;92.40;;;;;;5050430;28;20032;-67
2023/04/24 08:05:09;;;;;;;8.13;6.50;;;10.40;92.30;;;;;;5050457;28;20017;-66
2023/04/24 08:07:35;;;;;;;10.23;7.60;;;10.30;92.30;;;;;;5049121;28;20029;-68
2023/04/24 08:10:01;;;;;;;10.43;6.85;;;10.20;92.60;;;;;;5050379;28;20498;-67
2023/04/24 08:12:29;;;;;;;7.75;6.20;;;10.20;92.40;;;;;;5050130;28;20029;-68
2023/04/24 08:14:55;;;;;;;7.65;5.97;;;10.20;92.50;;;;;;5046948;28;20078;-66
2023/04/24 08:17:20;;;;;;;7.35;5.65;;;10.20;92.40;;;;;;5050278;28;20033;-66
2023/04/24 08:19:48;;;;;;;9.13;6.28;;;10.20;92.40;;;;;;5049385;28;20203;-67
2023/04/24 08:22:14;;;;;;;9.60;6.60;;;10.20;92.40;;;;;;5050687;28;20028;-68
2023/04/24 08:24:40;;;;;;;7.68;5.43;;;10.20;92.30;;;;;;5050358;28;20025;-68
2023/04/24 08:27:05;;;;;;;8.85;6.03;;;10.20;92.40;;;;;;5049932;28;20032;-67
2023/04/24 08:29:31;;;;;;;9.48;6.82;;;10.20;92.40;;;;;;5050331;28;20079;-68
2023/04/24 08:31:57;;;;;;;7.80;5.93;;;10.20;92.40;;;;;;5050114;28;20036;-67
2023/04/24 08:34:22;;;;;;;11.23;7.10;;;10.20;92.40;;;;;;5048965;28;20022;-67
2023/04/24 08:36:48;;;;;;;11.45;7.00;;;10.20;92.40;;;;;;5049998;28;20468;-68
2023/04/24 08:39:15;;;;;;;9.90;7.55;;;10.20;92.40;;;;;;5050020;28;20488;-66
2023/04/24 08:41:45;;;;;;;11.13;7.05;;;10.20;92.50;;;;;;5050383;28;20032;-67
2023/04/24 08:44:12;;;;;;;11.60;7.88;;;10.10;92.50;;;;;;5050077;28;20020;-67
2023/04/24 08:46:39;;;;;;;9.15;6.50;;;10.20;92.60;;;;;;5048479;28;20029;-67
2023/04/24 08:49:05;;;;;;;10.50;6.78;;;10.20;92.50;;;;;;5049907;28;20078;-67
2023/04/24 08:51:31;;;;;;;9.25;6.78;;;10.20;92.60;;;;;;5049539;28;20033;-67
2023/04/24 08:53:57;;;;;;;10.07;6.47;;;10.20;92.60;;;;;;5049983;28;20088;-66
2023/04/24 08:56:24;;;;;;;10.43;6.88;;;10.20;92.60;;;;;;5049910;28;20029;-67
2023/04/24 08:58:54;;;;;;;10.13;6.57;;;10.20;92.50;;;;;;5049739;28;20033;-67
2023/04/24 09:01:20;;;;;;;8.40;6.20;;;10.30;92.50;;;;;;5049768;28;20403;-67
2023/04/24 09:03:48;;;;;;;10.18;6.85;;;10.20;92.40;;;;;;5049809;28;20029;-67
2023/04/24 09:06:15;;;;;;;9.57;5.63;;;10.20;92.50;;;;;;5049802;28;20029;-65
2023/04/24 09:08:43;;;;;;;9.65;5.43;;;10.20;92.50;;;;;;5049614;28;20036;-67
2023/04/24 09:11:11;;;;;;;8.07;5.00;;;10.20;92.60;;;;;;5049829;28;20029;-66
2023/04/24 09:13:37;;;;;;;6.13;4.32;;;10.20;92.50;;;;;;5049617;28;20044;-67
2023/04/24 09:16:02;;;;;;;6.88;3.88;;;10.10;92.50;;;;;;5047998;28;20021;-68
2023/04/24 09:18:28;;;;;;;7.40;4.30;;;10.10;92.40;;;;;;5049396;28;20050;-66
2023/04/24 09:20:57;;;;;;;11.15;4.88;;;10.00;92.30;;;;;;5049514;28;20036;-67
2023/04/24 09:23:25;;;;;;;6.63;3.90;;;10.00;92.40;;;;;;5051176;28;20017;-67
2023/04/24 09:25:55;;;;;;;9.93;4.03;;;10.00;92.40;;;;;;5053338;28;20036;-67
2023/04/24 09:28:26;;;;;;;8.27;4.20;;;10.00;92.30;;;;;;5053314;28;20040;-67
2023/04/24 09:31:03;;;;;;;9.38;4.20;;;10.10;92.30;;;;;;5053425;28;20419;-68
2023/04/24 09:33:29;;;;;;;11.50;4.70;;;10.10;92.30;;;;;;5053659;28;20464;-67
2023/04/24 09:35:55;;;;;;;8.18;3.58;;;10.10;92.20;;;;;;5053309;28;20032;-67
2023/04/24 09:38:35;;;;;;;11.93;4.30;;;10.10;92.30;;;;;;5053304;28;20024;-67
2023/04/24 09:41:06;;;;;;;12.50;4.35;;;10.20;92.20;;;;;;5053203;28;20575;-67
2023/04/24 09:43:32;;;;;;;11.35;3.92;;;10.20;92.00;;;;;;5053209;28;20067;-68
2023/04/24 09:46:03;;;;;;;8.45;3.10;;;10.30;91.90;;;;;;5053067;28;20031;-67
2023/04/24 09:48:34;;;;;;;10.20;3.67;;;10.30;91.80;;;;;;5051730;28;20039;-67
2023/04/24 09:51:01;;;;;;;10.65;3.70;;;10.40;91.60;;;;;;5052910;28;20071;-67
2023/04/24 09:53:27;;;;;;;10.25;3.20;;;10.30;91.10;;;;;;5053047;28;20053;-66
2023/04/24 09:55:53;;;;;;;10.13;3.35;;;10.30;91.00;;;;;;5053030;28;20264;-67
2023/04/24 09:58:26;;;;;;;9.30;3.60;;;10.40;90.90;;;;;;5052732;28;20079;-66
2023/04/24 10:00:54;;;;;;;7.70;2.80;;;10.50;90.70;;;;;;5052799;28;20041;-67
2023/04/24 10:03:19;;;;;;;10.60;3.45;;;10.70;90.70;;;;;;5052922;28;20148;-68
2023/04/24 10:05:46;;;;;;;6.43;2.70;;;10.80;90.50;;;;;;5052810;28;20131;-67
2023/04/24 10:08:13;;;;;;;7.72;3.00;;;10.80;90.40;;;;;;5052724;28;20116;-66
2023/04/24 10:10:43;;;;;;;9.70;3.30;;;10.80;90.20;;;;;;5052755;28;20427;-68
2023/04/24 10:13:10;;;;;;;10.40;3.03;;;10.80;90.10;;;;;;5052724;28;20066;-68
2023/04/24 10:15:36;;;;;;;10.05;3.35;;;10.90;89.90;;;;;;5052410;28;20480;-67
2023/04/24 10:18:04;;;;;;;12.18;3.58;;;11.10;89.60;;;;;;5052320;28;20025;-67
2023/04/24 10:20:30;;;;;;;7.13;3.50;;;11.20;89.10;;;;;;5052549;28;20122;-68
2023/04/24 10:22:58;;;;;;;8.75;3.30;;;11.30;88.30;;;;;;5052692;28;20488;-66
2023/04/24 10:25:28;;;;;;;8.40;3.72;;;11.50;88.20;;;;;;5052380;28;20126;-67
2023/04/24 10:27:59;;;;;;;10.73;2.97;;;11.70;87.50;;;;;;5052131;28;20029;-68
2023/04/24 10:30:27;;;;;;;7.40;2.80;;;11.90;87.00;;;;;;5052544;28;20028;-67
2023/04/24 10:32:52;;;;;;;9.80;3.03;;;12.10;86.70;;;;;;5052291;28;20108;-66
2023/04/24 10:35:21;;;;;;;7.55;2.70;;;12.20;86.40;;;;;;5051748;28;20123;-68
2023/04/24 10:37:50;;;;;;;7.95;3.20;;;12.20;85.90;;;;;;5052253;28;20060;-68
2023/04/24 10:40:26;;;;;;;8.95;3.22;;;12.10;85.10;;;;;;5052707;28;20468;-67
2023/04/24 10:42:54;;;;;;;6.13;2.85;;;12.00;85.10;;;;;;5052182;28;20025;-67
2023/04/24 10:45:21;;;;;;;8.07;3.17;;;11.90;85.20;;;;;;5052155;28;20483;-67
2023/04/24 10:47:56;;;;;;;7.38;2.45;;;11.80;84.50;;;;;;5052007;28;20118;-66
2023/04/24 10:50:22;;;;;;;8.70;2.67;;;11.70;84.50;;;;;;5052062;28;20481;-68
2023/04/24 10:52:51;;;;;;;4.88;2.20;;;11.60;84.30;;;;;;5051906;28;20052;-68
2023/04/24 10:55:35;;;;;;;6.60;2.50;;;11.70;84.40;;;;;;5051982;28;20025;-68
2023/04/24 10:58:04;;;;;;;4.93;2.60;;;11.70;84.20;;;;;;5051808;28;20346;-68
2023/04/24 11:00:30;;;;;;;4.85;2.50;;;11.70;83.70;;;;;;5051922;28;20103;-68
2023/04/24 11:02:57;;;;;;;6.78;2.40;;;11.70;83.50;;;;;;5050368;28;20159;-68
2023/04/24 11:05:43;;;;;;;7.00;2.00;;;11.70;81.60;;;;;;5051677;28;20013;-67
2023/04/24 11:08:21;;;;;;;5.78;2.28;;;11.70;81.60;;;;;;5051235;28;20025;-68
2023/04/24 11:10:53;;;;;;;6.10;2.20;;;11.80;81.20;;;;;;5051596;28;20032;-67
2023/04/24 11:13:22;;;;;;;6.25;2.58;;;11.80;81.40;;;;;;5051453;28;20450;-68
2023/04/24 11:16:26;;;;;;;5.75;2.42;;;11.70;80.60;;;;;;5051577;28;20509;-68
2023/04/24 11:19:02;;;;;;;4.28;2.13;;;11.50;80.40;;;;;;5051354;28;20036;-68
2023/04/24 11:21:32;;;;;;;6.05;2.42;;;11.40;80.60;;;;;;5051583;28;20114;-68
2023/04/24 11:23:58;;;;;;;2.90;1.50;;;11.40;81.20;;;;;;5051341;28;20387;-68
2023/04/24 11:26:30;;;;;;;5.15;1.95;;;11.60;81.50;;;;;;5051423;28;20033;-68
2023/04/24 11:29:06;;;;;;;4.72;1.50;;;11.70;80.80;;;;;;5051306;28;20025;-68
2023/04/24 11:31:40;;;;;;;5.75;1.67;;;11.80;80.00;;;;;;5051184;28;20021;-68
2023/04/24 11:34:11;;;;;;;3.72;1.60;;;11.90;79.70;;;;;;5051240;28;20509;-68
2023/04/24 11:36:37;;;;;;;4.90;1.45;;;11.90;79.10;;;;;;5049545;28;20036;-67
2023/04/24 11:39:03;;;;;;;1.63;1.10;;;11.90;78.60;;;;;;5049735;28;20025;-67
2023/04/24 11:41:29;;;;;;;2.53;1.38;;;11.90;78.60;;;;;;5050905;28;20104;-67
2023/04/24 11:43:56;;;;;;;2.10;1.20;;;11.90;78.40;;;;;;5050884;28;20017;-67
2023/04/24 11:46:22;;;;;;;2.67;1.42;;;12.00;78.30;;;;;;5049673;28;20027;-67
2023/04/24 11:48:47;;;;;;;3.13;1.38;;;12.00;78.10;;;;;;5049435;28;20063;-69
2023/04/24 11:51:14;;;;;;;2.47;1.20;;;12.00;77.80;;;;;;5050744;28;20060;-68
2023/04/24 11:53:40;;;;;;;3.38;1.25;;;12.00;77.50;;;;;;5051210;28;20029;-67
2023/04/24 11:56:06;;;;;;;3.40;1.30;;;12.00;77.20;;;;;;5050471;28;20029;-68
2023/04/24 11:58:39;;;;;;;2.75;1.20;;;11.80;76.40;;;;;;5050508;28;20021;-67
2023/04/24 12:01:05;;;;;;;2.05;1.17;;;11.70;76.70;;;;;;5050501;28;20218;-66
2023/04/24 12:03:31;;;;;;;2.85;1.10;;;11.60;76.80;;;;;;5050603;28;20700;-67
2023/04/24 12:06:07;;;;;;;3.08;1.60;;;11.50;76.80;;;;;;5050291;28;20034;-67
2023/04/24 12:08:33;;;;;;;2.53;1.08;;;11.40;77.20;;;;;;5050399;28;20545;-67
2023/04/24 12:11:01;;;;;;;1.75;1.00;;;11.30;77.80;;;;;;5050464;28;20065;-66
2023/04/24 12:13:27;;;;;;;1.88;0.90;;;11.10;78.50;;;;;;5050432;28;20510;-67
2023/04/24 12:15:52;;;;;;;2.25;1.00;;;11.10;79.20;;;;;;5050608;28;20029;-66
2023/04/24 12:18:18;;;;;;;1.75;0.90;;;11.10;79.90;;;;;;5050218;28;20083;-67
2023/04/24 12:20:43;;;;;;;2.10;1.02;;;11.10;80.50;;;;;;5050864;28;20033;-68
2023/04/24 12:23:09;;;;;;;2.47;1.00;;;11.30;80.70;;;;;;5050271;28;20341;-66
2023/04/24 12:25:35;;;;;;;3.45;1.40;;;11.50;81.30;;;;;;5050297;28;20028;-67
2023/04/24 12:28:03;;;;;;;4.25;1.38;;;11.70;81.10;;;;;;5050188;28;20048;-67
2023/04/24 12:30:30;;;;;;;3.83;1.10;;;11.80;80.50;;;;;;5048925;28;20118;-67
2023/04/24 12:32:58;;;;;;;3.15;1.27;;;12.00;80.20;;;;;;5050005;28;20017;-68
2023/04/24 12:35:26;;;;;;;2.90;1.15;;;12.10;79.70;;;;;;5048893;28;20158;-67
2023/04/24 12:37:51;;;;;;;2.33;1.27;;;12.20;79.00;;;;;;5050081;28;20048;-69